createdAt,value
2023-04-14T00:00:12.824Z,14.30
2023-04-14T00:01:35.597Z,15.00
2023-04-14T00:02:38.747Z,14.90
2023-04-14T00:03:42.348Z,14.10
2023-04-14T00:04:52.191Z,14.50
2023-04-14T00:05:55.113Z,15.20
2023-04-14T00:07:00.118Z,14.60
2023-04-14T00:08:03.070Z,13.90
2023-04-14T00:09:05.944Z,14.20
2023-04-14T00:10:09.078Z,14.30
2023-04-14T00:11:11.963Z,15.20
2023-04-14T00:12:14.948Z,15.10
2023-04-14T00:13:17.818Z,14.70
2023-04-14T00:14:20.681Z,15.10
2023-04-14T00:15:23.798Z,14.90
2023-04-14T00:16:26.811Z,16.70
2023-04-14T00:17:31.121Z,14.70
2023-04-14T00:18:34.285Z,14.80
2023-04-14T00:19:37.116Z,15.90
2023-04-14T00:20:39.892Z,15.70
2023-04-14T00:21:42.817Z,14.80
2023-04-14T00:22:45.713Z,15.60
2023-04-14T00:23:48.978Z,15.60
2023-04-14T00:24:52.113Z,15.40
2023-04-14T00:25:55.046Z,15.00
2023-04-14T00:26:57.907Z,14.60
2023-04-14T00:28:00.922Z,15.30
2023-04-14T00:29:03.976Z,15.40
2023-04-14T00:30:07.657Z,15.30
2023-04-14T00:31:11.448Z,15.20
2023-04-14T00:32:14.466Z,14.50
2023-04-14T00:33:17.345Z,15.10
2023-04-14T00:34:20.123Z,15.70
2023-04-14T00:35:24.530Z,15.40
2023-04-14T00:36:27.388Z,14.50
2023-04-14T00:37:31.038Z,14.80
2023-04-14T00:38:35.779Z,14.60
2023-04-14T00:39:39.045Z,15.00
2023-04-14T00:40:41.827Z,15.60
2023-04-14T00:41:44.579Z,15.10
2023-04-14T00:42:47.972Z,13.90
2023-04-14T00:43:54.650Z,14.80
2023-04-14T00:44:57.485Z,16.20
2023-04-14T00:46:00.936Z,14.90
2023-04-14T00:47:04.213Z,15.60
2023-04-14T00:48:07.588Z,15.80
2023-04-14T00:49:11.388Z,16.30
2023-04-14T00:50:16.918Z,15.40
2023-04-14T00:51:19.766Z,16.50
2023-04-14T00:52:24.816Z,15.50
2023-04-14T00:53:27.859Z,16.40
2023-04-14T00:54:32.631Z,16.10
2023-04-14T00:55:36.364Z,16.20
2023-04-14T00:56:39.438Z,15.90
2023-04-14T00:57:42.872Z,16.20
2023-04-14T00:58:46.524Z,17.90
2023-04-14T00:59:49.560Z,19.90
2023-04-14T01:00:55.689Z,18.50
2023-04-14T01:02:00.937Z,18.40
2023-04-14T01:03:04.355Z,18.50
2023-04-14T01:04:08.150Z,17.30
2023-04-14T01:05:12.778Z,17.20
2023-04-14T01:06:15.900Z,17.20
2023-04-14T01:07:19.867Z,17.40
2023-04-14T01:08:22.958Z,16.00
2023-04-14T01:09:25.958Z,19.90
2023-04-14T01:10:34.333Z,18.50
2023-04-14T01:12:00.530Z,21.30
2023-04-14T01:13:13.814Z,19.20
2023-04-14T01:14:31.738Z,17.90
2023-04-14T01:15:47.697Z,16.90
2023-04-14T01:16:55.294Z,17.10
2023-04-14T01:18:10.283Z,16.80
2023-04-14T01:19:54.850Z,16.80
2023-04-14T01:21:05.534Z,16.00
2023-04-14T01:22:10.956Z,16.10
2023-04-14T01:23:21.661Z,16.40
2023-04-14T01:24:36.352Z,15.80
2023-04-14T01:26:00.380Z,15.80
2023-04-14T01:27:23.489Z,15.30
2023-04-14T01:29:03.858Z,16.20
2023-04-14T01:31:48.748Z,16.50
2023-04-14T01:32:56.534Z,16.40
2023-04-14T01:34:34.928Z,15.90
2023-04-14T01:35:42.725Z,16.40
2023-04-14T01:37:06.777Z,16.10
2023-04-14T01:38:19.361Z,16.50
2023-04-14T01:39:26.716Z,16.10
2023-04-14T01:40:33.633Z,15.70
2023-04-14T01:41:42.776Z,17.00
2023-04-14T01:42:52.191Z,16.50
2023-04-14T01:43:59.448Z,16.10
2023-04-14T01:45:11.948Z,16.20
2023-04-14T01:46:17.728Z,17.50
2023-04-14T01:47:22.240Z,17.30
2023-04-14T01:48:26.535Z,17.00
2023-04-14T01:49:33.765Z,17.80
2023-04-14T01:50:37.987Z,16.40
2023-04-14T01:51:44.129Z,17.20
2023-04-14T01:52:51.623Z,17.70
2023-04-14T01:53:57.941Z,17.70
2023-04-14T01:55:06.747Z,17.10
2023-04-14T01:56:11.355Z,17.00
2023-04-14T01:57:16.449Z,17.00
2023-04-14T01:58:23.255Z,17.50
2023-04-14T01:59:29.627Z,18.50
2023-04-14T02:00:36.080Z,17.30
2023-04-14T02:01:40.956Z,17.30
2023-04-14T02:02:50.316Z,18.10
2023-04-14T02:03:53.529Z,16.90
2023-04-14T02:04:59.695Z,17.30
2023-04-14T02:06:04.773Z,19.10
2023-04-14T02:07:12.589Z,18.80
2023-04-14T02:08:17.928Z,17.60
2023-04-14T02:09:24.905Z,18.60
2023-04-14T02:10:29.129Z,18.80
2023-04-14T02:11:34.738Z,18.10
2023-04-14T02:12:41.335Z,17.50
2023-04-14T02:13:45.937Z,17.70
2023-04-14T02:14:51.195Z,17.80
2023-04-14T02:15:55.064Z,17.10
2023-04-14T02:16:59.776Z,17.40
2023-04-14T02:18:05.823Z,17.70
2023-04-14T02:19:09.600Z,17.60
2023-04-14T02:20:14.700Z,17.40
2023-04-14T02:21:20.008Z,19.10
2023-04-14T02:22:22.937Z,17.80
2023-04-14T02:23:25.847Z,17.90
2023-04-14T02:24:31.114Z,17.30
2023-04-14T02:25:41.103Z,16.20
2023-04-14T02:26:56.137Z,17.60
2023-04-14T02:28:03.883Z,17.50
2023-04-14T02:29:13.607Z,17.10
2023-04-14T02:30:24.689Z,16.60
2023-04-14T02:31:32.561Z,17.90
2023-04-14T02:32:37.516Z,17.50
2023-04-14T02:33:44.048Z,18.10
2023-04-14T02:34:58.939Z,17.70
2023-04-14T02:36:06.640Z,17.70
2023-04-14T02:37:12.762Z,18.30
2023-04-14T02:38:44.912Z,18.90
2023-04-14T02:39:53.792Z,18.50
2023-04-14T02:40:59.841Z,18.20
2023-04-14T02:42:10.955Z,18.20
2023-04-14T02:43:19.487Z,18.20
2023-04-14T02:44:31.182Z,17.90
2023-04-14T02:45:38.511Z,18.00
2023-04-14T02:46:46.061Z,17.40
2023-04-14T02:47:54.581Z,18.00
2023-04-14T02:49:01.892Z,19.10
2023-04-14T02:50:10.183Z,20.60
2023-04-14T02:51:15.504Z,19.30
2023-04-14T02:52:22.032Z,18.90
2023-04-14T02:53:26.629Z,18.50
2023-04-14T02:54:41.626Z,18.40
2023-04-14T02:55:50.532Z,19.60
2023-04-14T02:56:57.467Z,18.50
2023-04-14T02:58:01.190Z,18.90
2023-04-14T02:59:06.296Z,20.00
2023-04-14T03:00:11.244Z,19.30
2023-04-14T03:01:19.544Z,19.00
2023-04-14T03:02:24.885Z,19.50
2023-04-14T03:03:37.702Z,20.90
2023-04-14T03:04:42.405Z,19.80
2023-04-14T03:05:52.083Z,18.60
2023-04-14T03:06:57.038Z,19.90
2023-04-14T03:08:00.907Z,19.20
2023-04-14T03:09:04.998Z,19.20
2023-04-14T03:10:09.726Z,18.30
2023-04-14T03:11:14.775Z,17.80
2023-04-14T03:12:19.391Z,18.10
2023-04-14T03:13:28.359Z,18.10
2023-04-14T03:14:31.838Z,18.90
2023-04-14T03:15:37.631Z,19.00
2023-04-14T03:16:41.373Z,19.10
2023-04-14T03:17:48.830Z,18.50
2023-04-14T03:18:54.585Z,17.00
2023-04-14T03:19:58.660Z,17.70
2023-04-14T03:21:02.565Z,18.90
2023-04-14T03:22:06.802Z,17.90
2023-04-14T03:23:12.504Z,18.00
2023-04-14T03:24:24.721Z,16.90
2023-04-14T03:25:29.359Z,16.40
2023-04-14T03:26:34.859Z,16.20
2023-04-14T03:27:40.298Z,17.80
2023-04-14T03:28:43.699Z,16.00
2023-04-14T03:29:51.913Z,16.10
2023-04-14T03:30:56.936Z,16.10
2023-04-14T03:32:06.780Z,16.90
2023-04-14T03:33:13.164Z,16.00
2023-04-14T03:34:17.836Z,15.60
2023-04-14T03:35:23.335Z,16.00
2023-04-14T03:36:27.383Z,16.10
2023-04-14T03:37:35.893Z,15.10
2023-04-14T03:38:42.203Z,15.30
2023-04-14T03:39:50.938Z,16.10
2023-04-14T03:40:59.142Z,16.00
2023-04-14T03:42:03.762Z,15.50
2023-04-14T03:43:12.947Z,15.40
2023-04-14T03:44:19.332Z,14.70
2023-04-14T03:45:26.612Z,15.60
2023-04-14T03:46:31.350Z,15.80
2023-04-14T03:47:35.919Z,14.90
2023-04-14T03:48:43.670Z,15.50
2023-04-14T03:49:50.466Z,16.00
2023-04-14T03:50:55.224Z,14.70
2023-04-14T03:52:05.246Z,14.40
2023-04-14T03:53:14.841Z,14.50
2023-04-14T03:54:19.371Z,15.10
2023-04-14T03:55:23.492Z,15.40
2023-04-14T03:56:27.665Z,13.80
2023-04-14T03:57:32.609Z,14.00
2023-04-14T03:58:36.957Z,15.60
2023-04-14T03:59:42.499Z,14.40
2023-04-14T04:00:47.691Z,14.30
2023-04-14T04:01:52.764Z,15.50
2023-04-14T04:02:57.638Z,17.80
2023-04-14T04:04:03.085Z,18.10
2023-04-14T04:05:09.766Z,16.90
2023-04-14T04:06:13.167Z,15.30
2023-04-14T04:07:19.465Z,14.90
2023-04-14T04:08:24.132Z,15.10
2023-04-14T04:09:28.370Z,14.60
2023-04-14T04:10:35.104Z,15.30
2023-04-14T04:11:39.914Z,14.70
2023-04-14T04:12:45.223Z,14.90
2023-04-14T04:13:49.376Z,14.00
2023-04-14T04:14:52.495Z,14.10
2023-04-14T04:15:55.754Z,14.50
2023-04-14T04:17:04.337Z,14.50
2023-04-14T04:18:08.932Z,14.00
2023-04-14T04:19:14.103Z,14.80
2023-04-14T04:20:18.782Z,15.00
2023-04-14T04:21:22.901Z,15.30
2023-04-14T04:22:27.628Z,14.50
2023-04-14T04:23:33.553Z,14.60
2023-04-14T04:24:38.823Z,15.50
2023-04-14T04:25:42.409Z,15.90
2023-04-14T04:26:54.301Z,16.00
2023-04-14T04:27:57.528Z,14.40
2023-04-14T04:29:00.898Z,15.30
2023-04-14T04:30:08.237Z,14.70
2023-04-14T04:31:14.346Z,14.40
2023-04-14T04:32:18.119Z,15.50
2023-04-14T04:33:22.006Z,14.80
2023-04-14T04:34:26.759Z,14.80
2023-04-14T04:35:30.631Z,14.80
2023-04-14T04:36:34.752Z,15.10
2023-04-14T04:37:38.522Z,16.40
2023-04-14T04:38:43.094Z,16.00
2023-04-14T04:39:48.659Z,14.50
2023-04-14T04:40:52.360Z,15.70
2023-04-14T04:42:06.887Z,16.30
2023-04-14T04:43:09.750Z,15.50
2023-04-14T04:44:12.956Z,15.20
2023-04-14T04:45:40.180Z,15.30
2023-04-14T04:46:52.119Z,15.80
2023-04-14T04:47:58.149Z,15.40
2023-04-14T04:49:01.217Z,16.00
2023-04-14T04:50:04.659Z,16.10
2023-04-14T04:51:08.674Z,15.60
2023-04-14T04:52:11.510Z,15.80
2023-04-14T04:53:14.727Z,15.70
2023-04-14T04:54:18.277Z,15.70
2023-04-14T04:55:21.067Z,15.40
2023-04-14T04:56:24.118Z,15.00
2023-04-14T04:57:26.999Z,16.60
2023-04-14T04:58:29.938Z,16.20
2023-04-14T04:59:33.355Z,16.50
2023-04-14T05:00:36.229Z,14.80
2023-04-14T05:01:39.209Z,15.80
2023-04-14T05:02:42.216Z,16.10
2023-04-14T05:03:46.291Z,16.50
2023-04-14T05:04:49.204Z,16.30
2023-04-14T05:05:52.323Z,16.50
2023-04-14T05:06:55.295Z,16.20
2023-04-14T05:07:58.282Z,15.80
2023-04-14T05:09:01.663Z,16.50
2023-04-14T05:10:05.691Z,16.00
2023-04-14T05:11:08.750Z,16.70
2023-04-14T05:12:11.917Z,15.80
2023-04-14T05:13:14.823Z,16.50
2023-04-14T05:14:17.682Z,16.60
2023-04-14T05:15:20.644Z,16.30
2023-04-14T05:16:23.941Z,16.20
2023-04-14T05:17:27.361Z,17.10
2023-04-14T05:18:31.411Z,16.90
2023-04-14T05:19:34.297Z,16.80
2023-04-14T05:20:37.477Z,17.30
2023-04-14T05:21:40.463Z,17.20
2023-04-14T05:22:43.339Z,17.50
2023-04-14T05:23:46.876Z,17.50
2023-04-14T05:24:50.650Z,16.80
2023-04-14T05:26:01.264Z,16.50
2023-04-14T05:27:14.220Z,17.70
2023-04-14T05:28:17.615Z,18.70
2023-04-14T05:29:20.764Z,17.10
2023-04-14T05:30:24.366Z,17.10
2023-04-14T05:31:27.542Z,18.20
2023-04-14T05:32:31.132Z,16.70
2023-04-14T05:33:37.370Z,16.90
2023-04-14T05:34:41.348Z,17.60
2023-04-14T05:35:47.472Z,17.50
2023-04-14T05:36:50.400Z,17.50
2023-04-14T05:37:53.207Z,16.70
2023-04-14T05:38:56.318Z,16.80
2023-04-14T05:39:59.143Z,17.20
2023-04-14T05:41:02.496Z,17.60
2023-04-14T05:42:05.679Z,16.20
2023-04-14T05:43:08.858Z,16.40
2023-04-14T05:44:11.812Z,16.20
2023-04-14T05:45:14.861Z,16.60
2023-04-14T05:46:17.970Z,17.10
2023-04-14T05:47:20.820Z,17.50
2023-04-14T05:48:25.179Z,17.70
2023-04-14T05:49:28.613Z,16.00
2023-04-14T05:50:33.449Z,17.60
2023-04-14T05:51:36.374Z,17.10
2023-04-14T05:52:39.246Z,16.70
2023-04-14T05:53:42.084Z,17.00
2023-04-14T05:54:45.324Z,16.80
2023-04-14T05:55:51.007Z,16.60
2023-04-14T05:56:53.810Z,16.00
2023-04-14T05:57:56.558Z,16.20
2023-04-14T05:58:59.595Z,15.20
2023-04-14T06:00:02.568Z,15.80
2023-04-14T06:01:15.743Z,16.70
2023-04-14T06:02:18.947Z,16.30
2023-04-14T06:03:22.239Z,15.90
2023-04-14T06:04:25.625Z,15.60
2023-04-14T06:05:28.945Z,15.90
2023-04-14T06:06:32.745Z,16.60
2023-04-14T06:07:36.073Z,16.30
2023-04-14T06:08:38.942Z,16.10
2023-04-14T06:09:42.853Z,16.20
2023-04-14T06:10:46.396Z,15.90
2023-04-14T06:11:49.269Z,16.40
2023-04-14T06:12:52.207Z,16.70
2023-04-14T06:13:54.989Z,16.10
2023-04-14T06:14:57.934Z,15.40
2023-04-14T06:16:01.113Z,15.90
2023-04-14T06:17:04.156Z,16.80
2023-04-14T06:18:07.118Z,15.30
2023-04-14T06:19:10.927Z,15.90
2023-04-14T06:20:14.552Z,15.70
2023-04-14T06:21:17.791Z,16.50
2023-04-14T06:22:20.710Z,16.60
2023-04-14T06:23:24.720Z,17.10
2023-04-14T06:24:27.620Z,16.20
2023-04-14T06:25:31.118Z,17.00
2023-04-14T06:26:34.091Z,17.70
2023-04-14T06:27:37.505Z,17.40
2023-04-14T06:28:41.475Z,17.50
2023-04-14T06:29:46.352Z,18.60
2023-04-14T06:30:49.790Z,17.50
2023-04-14T06:31:52.944Z,17.60
2023-04-14T06:32:56.339Z,17.80
2023-04-14T06:33:59.221Z,17.90
2023-04-14T06:35:05.000Z,16.70
2023-04-14T06:36:08.381Z,16.30
2023-04-14T06:37:11.345Z,17.40
2023-04-14T06:38:14.420Z,17.00
2023-04-14T06:39:17.257Z,16.90
2023-04-14T06:40:20.174Z,17.40
2023-04-14T06:41:23.158Z,18.40
2023-04-14T06:42:26.420Z,16.90
2023-04-14T06:43:29.301Z,17.50
2023-04-14T06:44:32.180Z,17.50
2023-04-14T06:45:35.037Z,17.00
2023-04-14T06:46:38.034Z,17.10
2023-04-14T06:47:41.208Z,17.20
2023-04-14T06:48:44.141Z,16.60
2023-04-14T06:49:47.071Z,17.80
2023-04-14T06:50:56.790Z,17.50
2023-04-14T06:51:59.672Z,17.90
2023-04-14T06:53:05.896Z,18.00
2023-04-14T06:54:08.920Z,17.30
2023-04-14T06:55:11.822Z,17.50
2023-04-14T06:56:14.714Z,18.10
2023-04-14T06:57:17.769Z,18.30
2023-04-14T06:58:21.038Z,17.90
2023-04-14T06:59:27.935Z,18.00
2023-04-14T07:00:30.736Z,18.20
2023-04-14T07:01:33.845Z,18.60
2023-04-14T07:02:37.069Z,18.50
2023-04-14T07:03:40.456Z,19.00
2023-04-14T07:04:43.435Z,18.50
2023-04-14T07:05:46.724Z,19.40
2023-04-14T07:06:49.600Z,18.00
2023-04-14T07:07:52.715Z,19.00
2023-04-14T07:08:56.591Z,17.70
2023-04-14T07:09:59.674Z,18.20
2023-04-14T07:11:05.259Z,17.80
2023-04-14T07:12:13.834Z,20.60
2023-04-14T07:13:16.758Z,18.40
2023-04-14T07:14:19.775Z,19.10
2023-04-14T07:15:22.690Z,18.00
2023-04-14T07:16:25.563Z,17.10
2023-04-14T07:17:28.518Z,18.10
2023-04-14T07:18:31.937Z,18.30
2023-04-14T07:19:35.091Z,18.10
2023-04-14T07:20:38.160Z,17.90
2023-04-14T07:21:41.047Z,19.60
2023-04-14T07:22:44.040Z,19.20
2023-04-14T07:23:46.882Z,19.20
2023-04-14T07:24:49.930Z,18.90
2023-04-14T07:25:55.260Z,20.60
2023-04-14T07:26:58.101Z,19.60
2023-04-14T07:28:03.741Z,19.10
2023-04-14T07:29:07.402Z,19.70
2023-04-14T07:30:10.957Z,19.20
2023-04-14T07:31:13.886Z,19.10
2023-04-14T07:32:16.817Z,20.00
2023-04-14T07:33:22.305Z,19.50
2023-04-14T07:34:25.536Z,19.40
2023-04-14T07:35:29.245Z,18.90
2023-04-14T07:36:32.888Z,18.80
2023-04-14T07:37:35.736Z,20.40
2023-04-14T07:38:38.648Z,19.70
2023-04-14T07:39:41.694Z,20.20
2023-04-14T07:40:44.730Z,19.80
2023-04-14T07:41:48.050Z,19.20
2023-04-14T07:42:51.152Z,18.10
2023-04-14T07:43:59.387Z,18.60
2023-04-14T07:45:03.960Z,18.00
2023-04-14T07:46:08.756Z,18.40
2023-04-14T07:47:11.912Z,19.10
2023-04-14T07:48:14.893Z,18.90
2023-04-14T07:49:18.317Z,19.10
2023-04-14T07:50:21.252Z,20.20
2023-04-14T07:51:24.168Z,19.00
2023-04-14T07:52:27.147Z,18.30
2023-04-14T07:53:31.478Z,18.30
2023-04-14T07:54:34.815Z,19.60
2023-04-14T07:55:37.739Z,18.20
2023-04-14T07:56:40.681Z,19.10
2023-04-14T07:57:43.708Z,19.10
2023-04-14T07:58:47.224Z,19.00
2023-04-14T07:59:50.017Z,17.80
2023-04-14T08:00:53.093Z,17.80
2023-04-14T08:01:56.415Z,18.50
2023-04-14T08:03:00.830Z,18.10
2023-04-14T08:04:04.148Z,18.20
2023-04-14T08:05:07.978Z,17.20
2023-04-14T08:06:11.868Z,17.20
2023-04-14T08:07:16.181Z,16.30
2023-04-14T08:08:19.737Z,16.00
2023-04-14T08:09:22.608Z,15.70
2023-04-14T08:10:25.881Z,17.00
2023-04-14T08:11:28.730Z,15.90
2023-04-14T08:12:31.792Z,14.40
2023-04-14T08:13:34.979Z,15.50
2023-04-14T08:14:37.967Z,14.30
2023-04-14T08:15:40.829Z,14.60
2023-04-14T08:16:44.061Z,13.00
2023-04-14T08:17:47.102Z,12.90
2023-04-14T08:18:50.048Z,13.70
2023-04-14T08:19:52.931Z,12.60
2023-04-14T08:20:56.463Z,13.90
2023-04-14T08:21:59.581Z,13.40
2023-04-14T08:23:02.614Z,12.50
2023-04-14T08:24:06.615Z,12.90
2023-04-14T08:25:12.866Z,12.80
2023-04-14T08:26:16.214Z,12.40
2023-04-14T08:27:19.475Z,13.30
2023-04-14T08:28:22.811Z,13.00
2023-04-14T08:29:26.416Z,13.60
2023-04-14T08:30:29.780Z,12.90
2023-04-14T08:31:33.565Z,12.80
2023-04-14T08:32:36.860Z,11.70
2023-04-14T08:33:39.969Z,12.50
2023-04-14T08:35:35.317Z,12.20
2023-04-14T08:36:06.888Z,12.40
2023-04-14T08:37:09.924Z,11.70
2023-04-14T08:38:12.818Z,11.30
2023-04-14T08:39:15.731Z,11.50
2023-04-14T08:40:19.449Z,11.40
2023-04-14T08:41:23.031Z,12.70
2023-04-14T08:42:26.339Z,11.70
2023-04-14T08:43:29.628Z,11.20
2023-04-14T08:44:32.697Z,12.70
2023-04-14T08:45:36.832Z,12.40
2023-04-14T08:46:43.006Z,11.50
2023-04-14T08:47:46.799Z,11.90
2023-04-14T08:48:53.874Z,10.70
2023-04-14T08:50:04.888Z,11.40
2023-04-14T08:51:16.674Z,11.70
2023-04-14T08:52:23.501Z,10.60
2023-04-14T08:53:27.776Z,11.00
2023-04-14T08:54:31.367Z,10.30
2023-04-14T08:55:37.355Z,11.40
2023-04-14T08:56:41.970Z,11.50
2023-04-14T08:57:46.639Z,11.70
2023-04-14T08:58:50.940Z,12.00
2023-04-14T08:59:56.961Z,12.20
2023-04-14T09:01:00.524Z,11.80
2023-04-14T09:02:07.901Z,11.10
2023-04-14T09:03:11.625Z,11.60
2023-04-14T09:04:15.408Z,10.70
2023-04-14T09:05:19.223Z,10.80
2023-04-14T09:06:23.457Z,10.60
2023-04-14T09:07:29.530Z,10.80
2023-04-14T09:08:34.659Z,11.00
2023-04-14T09:09:37.507Z,11.20
2023-04-14T09:10:43.232Z,11.50
2023-04-14T09:11:46.860Z,11.40
2023-04-14T09:12:50.487Z,11.10
2023-04-14T09:13:53.639Z,10.70
2023-04-14T09:14:59.984Z,11.30
2023-04-14T09:16:03.592Z,11.30
2023-04-14T09:17:07.414Z,11.60
2023-04-14T09:18:12.092Z,11.80
2023-04-14T09:19:16.660Z,11.70
2023-04-14T09:20:38.605Z,12.20
2023-04-14T09:21:53.886Z,12.40
2023-04-14T09:22:58.220Z,10.90
2023-04-14T09:24:02.078Z,12.60
2023-04-14T09:25:06.131Z,12.10
2023-04-14T09:26:10.494Z,12.20
2023-04-14T09:27:13.737Z,11.90
2023-04-14T09:28:16.979Z,11.70
2023-04-14T09:29:20.133Z,11.50
2023-04-14T09:30:23.184Z,12.50
2023-04-14T09:31:27.249Z,12.70
2023-04-14T09:32:31.155Z,12.30
2023-04-14T09:33:39.554Z,13.40
2023-04-14T09:34:56.630Z,12.80
2023-04-14T09:36:01.384Z,12.00
2023-04-14T09:37:06.539Z,11.30
2023-04-14T09:38:09.505Z,11.80
2023-04-14T09:39:18.495Z,11.60
2023-04-14T09:40:31.589Z,11.50
2023-04-14T09:41:34.440Z,11.50
2023-04-14T09:42:39.744Z,11.80
2023-04-14T09:43:43.189Z,11.50
2023-04-14T09:44:55.756Z,11.90
2023-04-14T09:46:05.724Z,11.10
2023-04-14T09:47:08.753Z,11.10
2023-04-14T09:48:13.181Z,11.30
2023-04-14T09:49:16.229Z,10.40
2023-04-14T09:50:19.284Z,10.40
2023-04-14T09:51:30.105Z,9.40
2023-04-14T09:52:51.522Z,10.20
2023-04-14T09:53:54.984Z,10.00
2023-04-14T09:54:58.989Z,9.20
2023-04-14T09:56:05.113Z,9.80
2023-04-14T09:57:08.566Z,10.40
2023-04-14T09:58:11.588Z,9.80
2023-04-14T09:59:14.466Z,11.10
2023-04-14T10:00:22.307Z,10.30
2023-04-14T10:01:30.599Z,10.20
2023-04-14T10:02:48.541Z,10.80
2023-04-14T10:03:51.500Z,9.90
2023-04-14T10:05:05.582Z,10.30
2023-04-14T10:06:15.851Z,10.00
2023-04-14T10:07:18.945Z,10.00
2023-04-14T10:08:22.353Z,10.90
2023-04-14T10:09:28.007Z,10.80
2023-04-14T10:10:31.840Z,11.20
2023-04-14T10:11:35.585Z,10.30
2023-04-14T10:12:41.941Z,11.20
2023-04-14T10:13:46.564Z,11.90
2023-04-14T10:14:49.534Z,11.00
2023-04-14T10:15:52.697Z,11.90
2023-04-14T10:16:56.673Z,10.70
2023-04-14T10:17:59.897Z,11.20
2023-04-14T10:19:03.595Z,12.60
2023-04-14T10:20:08.221Z,11.70
2023-04-14T10:21:11.666Z,12.40
2023-04-14T10:22:16.869Z,12.30
2023-04-14T10:23:19.853Z,13.40
2023-04-14T10:24:25.018Z,13.90
2023-04-14T10:25:29.478Z,13.80
2023-04-14T10:26:32.350Z,13.50
2023-04-14T10:27:36.115Z,14.10
2023-04-14T10:28:45.644Z,13.50
2023-04-14T10:29:49.037Z,13.90
2023-04-14T10:30:53.928Z,14.20
2023-04-14T10:32:05.550Z,13.30
2023-04-14T10:33:09.760Z,13.40
2023-04-14T10:34:14.712Z,13.10
2023-04-14T10:35:20.726Z,13.40
2023-04-14T10:36:29.253Z,13.70
2023-04-14T10:37:33.163Z,14.00
2023-04-14T10:38:44.072Z,14.10
2023-04-14T10:39:58.600Z,14.10
2023-04-14T10:41:01.548Z,14.30
2023-04-14T10:42:04.432Z,15.70
2023-04-14T10:43:12.560Z,14.50
2023-04-14T10:44:45.076Z,14.90
2023-04-14T10:45:56.153Z,14.70
2023-04-14T10:47:02.486Z,16.30
2023-04-14T10:48:06.074Z,16.20
2023-04-14T10:49:12.344Z,14.80
2023-04-14T10:50:18.215Z,16.70
2023-04-14T10:51:35.831Z,15.20
2023-04-14T10:52:50.070Z,15.60
2023-04-14T10:53:55.830Z,16.50
2023-04-14T10:55:08.167Z,14.90
2023-04-14T10:56:11.377Z,15.60
2023-04-14T10:57:15.604Z,14.90
2023-04-14T10:58:20.627Z,14.70
2023-04-14T10:59:28.991Z,14.40
2023-04-14T11:00:32.565Z,15.20
2023-04-14T11:01:38.089Z,14.90
2023-04-14T11:02:58.446Z,15.00
2023-04-14T11:04:21.694Z,14.60
2023-04-14T11:05:25.205Z,13.70
2023-04-14T11:06:53.546Z,14.30
2023-04-14T11:08:01.572Z,13.10
2023-04-14T11:09:23.231Z,14.10
2023-04-14T11:11:29.880Z,13.90
2023-04-14T11:12:43.399Z,13.80
2023-04-14T11:14:12.273Z,12.50
2023-04-14T11:15:16.559Z,13.00
2023-04-14T11:16:27.103Z,14.10
2023-04-14T11:17:33.218Z,15.30
2023-04-14T11:18:46.333Z,14.30
2023-04-14T11:19:54.437Z,13.30
2023-04-14T11:21:06.242Z,14.10
2023-04-14T11:22:09.021Z,14.10
2023-04-14T11:23:16.641Z,14.10
2023-04-14T11:24:23.430Z,14.50
2023-04-14T11:25:26.405Z,15.00
2023-04-14T11:26:29.557Z,14.00
2023-04-14T11:27:33.538Z,15.20
2023-04-14T11:28:39.510Z,15.40
2023-04-14T11:29:42.637Z,15.10
2023-04-14T11:30:47.167Z,14.50
2023-04-14T11:32:05.793Z,14.00
2023-04-14T11:33:08.960Z,14.40
2023-04-14T11:34:12.253Z,15.00
2023-04-14T11:35:16.100Z,13.80
2023-04-14T11:36:19.265Z,14.60
2023-04-14T11:37:22.809Z,15.60
2023-04-14T11:38:26.075Z,15.90
2023-04-14T11:39:29.936Z,16.40
2023-04-14T11:40:36.684Z,15.90
2023-04-14T11:41:40.004Z,15.40
2023-04-14T11:42:47.471Z,16.40
2023-04-14T11:43:50.708Z,16.10
2023-04-14T11:45:00.099Z,15.80
2023-04-14T11:46:05.613Z,15.70
2023-04-14T11:47:08.723Z,17.60
2023-04-14T11:48:13.321Z,15.60
2023-04-14T11:49:16.134Z,17.10
2023-04-14T11:50:19.246Z,15.70
2023-04-14T11:51:29.813Z,16.00
2023-04-14T11:52:34.794Z,16.00
2023-04-14T11:53:40.662Z,16.90
2023-04-14T11:54:43.638Z,16.40
2023-04-14T11:55:49.735Z,15.90
2023-04-14T11:56:52.627Z,15.20
2023-04-14T11:57:57.057Z,15.10
2023-04-14T11:59:04.884Z,14.60
2023-04-14T12:00:11.885Z,14.70
2023-04-14T12:01:15.021Z,13.20
2023-04-14T12:02:20.454Z,12.70
2023-04-14T12:03:35.714Z,14.30
2023-04-14T12:04:40.286Z,14.00
2023-04-14T12:05:43.838Z,13.20
2023-04-14T12:06:47.173Z,14.10
2023-04-14T12:07:50.397Z,12.70
2023-04-14T12:09:03.701Z,12.90
2023-04-14T12:10:07.819Z,13.40
2023-04-14T12:11:15.260Z,13.20
2023-04-14T12:12:20.228Z,13.40
2023-04-14T12:13:24.118Z,13.00
2023-04-14T12:14:27.090Z,12.40
2023-04-14T12:15:36.086Z,12.40
2023-04-14T12:16:39.499Z,12.60
2023-04-14T12:17:42.838Z,12.70
2023-04-14T12:18:46.240Z,12.80
2023-04-14T12:19:49.185Z,12.80
2023-04-14T12:21:01.345Z,12.10
2023-04-14T12:22:05.566Z,12.20
2023-04-14T12:23:08.916Z,12.40
2023-04-14T12:24:11.751Z,12.70
2023-04-14T12:25:14.707Z,13.00
2023-04-14T12:26:20.188Z,12.30
2023-04-14T12:27:25.171Z,13.60
2023-04-14T12:28:29.722Z,13.80
2023-04-14T12:29:34.825Z,13.40
2023-04-14T12:30:38.088Z,13.00
2023-04-14T12:31:44.582Z,13.10
2023-04-14T12:32:47.769Z,13.10
2023-04-14T12:33:50.659Z,13.50
2023-04-14T12:34:58.587Z,13.80
2023-04-14T12:36:05.158Z,13.40
2023-04-14T12:37:12.315Z,13.40
2023-04-14T12:38:15.218Z,13.40
2023-04-14T12:39:18.877Z,13.40
2023-04-14T12:40:38.203Z,14.40
2023-04-14T12:41:42.061Z,12.50
2023-04-14T12:42:48.157Z,13.10
2023-04-14T12:43:51.252Z,13.20
2023-04-14T12:44:59.194Z,13.70
2023-04-14T12:46:06.282Z,13.60
2023-04-14T12:47:09.512Z,12.60
2023-04-14T12:48:14.379Z,13.00
2023-04-14T12:49:37.720Z,13.80
2023-04-14T12:50:40.686Z,13.20
2023-04-14T12:51:43.609Z,14.70
2023-04-14T12:52:46.918Z,16.60
2023-04-14T12:53:50.497Z,15.80
2023-04-14T12:54:53.547Z,15.60
2023-04-14T12:56:10.878Z,15.70
2023-04-14T12:57:13.875Z,15.00
2023-04-14T12:58:16.834Z,15.20
2023-04-14T12:59:19.858Z,16.70
2023-04-14T13:00:24.060Z,15.90
2023-04-14T13:01:27.149Z,16.90
2023-04-14T13:02:30.914Z,17.10
2023-04-14T13:03:41.852Z,17.00
2023-04-14T13:04:45.315Z,17.50
2023-04-14T13:05:48.204Z,14.50
2023-04-14T13:06:51.274Z,15.00
2023-04-14T13:07:54.851Z,13.60
2023-04-14T13:08:58.324Z,13.30
2023-04-14T13:10:02.824Z,14.50
2023-04-14T13:11:06.267Z,14.10
2023-04-14T13:12:09.743Z,13.30
2023-04-14T13:13:12.892Z,13.20
2023-04-14T13:14:16.643Z,13.30
2023-04-14T13:16:11.920Z,13.40
2023-04-14T13:16:42.682Z,12.90
2023-04-14T13:17:45.700Z,13.40
2023-04-14T13:18:49.289Z,13.30
2023-04-14T13:19:52.225Z,14.30
2023-04-14T13:20:56.181Z,14.30
2023-04-14T13:21:59.073Z,15.00
2023-04-14T13:23:02.246Z,13.30
2023-04-14T13:24:07.022Z,13.00
2023-04-14T13:25:09.965Z,13.10
2023-04-14T13:26:13.401Z,15.00
2023-04-14T13:27:17.240Z,15.20
2023-04-14T13:28:20.622Z,15.20
2023-04-14T13:29:23.506Z,15.10
2023-04-14T13:30:26.539Z,13.50
2023-04-14T13:31:29.772Z,14.70
2023-04-14T13:32:32.891Z,15.00
2023-04-14T13:33:36.005Z,14.40
2023-04-14T13:34:39.819Z,14.80
2023-04-14T13:35:43.683Z,14.80
2023-04-14T13:36:46.897Z,15.20
2023-04-14T13:37:49.993Z,14.50
2023-04-14T13:38:53.067Z,14.20
2023-04-14T13:39:56.409Z,13.60
2023-04-14T13:40:59.479Z,13.60
2023-04-14T13:42:02.500Z,13.60
2023-04-14T13:43:05.569Z,14.00
2023-04-14T13:44:08.471Z,12.40
2023-04-14T13:45:11.815Z,14.70
2023-04-14T13:46:15.148Z,14.50
2023-04-14T13:47:19.141Z,14.20
2023-04-14T13:48:22.316Z,14.10
2023-04-14T13:49:25.074Z,13.30
2023-04-14T13:50:28.213Z,12.80
2023-04-14T13:51:32.946Z,13.70
2023-04-14T13:52:36.474Z,13.40
2023-04-14T13:53:39.300Z,13.40
2023-04-14T13:54:42.485Z,13.00
2023-04-14T13:55:45.916Z,13.60
2023-04-14T13:56:48.915Z,13.80
2023-04-14T13:57:53.590Z,13.20
2023-04-14T13:58:56.702Z,14.10
2023-04-14T13:59:59.770Z,15.40
2023-04-14T14:01:12.330Z,13.30
2023-04-14T14:02:15.560Z,14.00
2023-04-14T14:03:19.053Z,13.60
2023-04-14T14:04:22.471Z,13.40
2023-04-14T14:05:26.451Z,21.60
2023-04-14T14:06:29.490Z,14.40